Time;durP1;ratioP1;P1;durP2;ratioP2;P2;SDS_P1;SDS_P2;PMS_P1;PMS_P2;Temp;Humidity;BMP_temperature;BMP_pressure;BME280_temperature;BME280_humidity;BME280_pressure;Samples;Min_cycle;Max_cycle;Signal;HPM_P1;HPM_P2
2023/12/18 00:00:21;;;;;;;13.30;10.10;;;;;;;7.39;67.35;103244.31;5073665;28;20020;-65
2023/12/18 00:02:47;;;;;;;17.48;10.38;;;;;;;7.38;67.16;103243.44;5086657;28;20503;-65
2023/12/18 00:05:15;;;;;;;13.95;9.95;;;;;;;7.40;66.96;103237.75;5091330;28;20038;-65
2023/12/18 00:07:40;;;;;;;14.80;10.18;;;;;;;7.37;67.18;103232.56;5091855;28;20395;-65
2023/12/18 00:10:06;;;;;;;13.63;9.88;;;;;;;7.36;67.23;103230.84;5091725;28;20027;-65
2023/12/18 00:12:31;;;;;;;13.80;10.57;;;;;;;7.30;66.70;103248.09;5078108;28;20052;-65
2023/12/18 00:14:56;;;;;;;14.15;10.20;;;;;;;7.32;67.06;103251.56;5071684;28;20028;-65
2023/12/18 00:17:22;;;;;;;13.27;10.80;;;;;;;7.34;67.62;103238.44;5080631;28;20470;-66
2023/12/18 00:19:47;;;;;;;17.25;10.68;;;;;;;7.36;67.11;103244.66;5084851;28;20040;-65
2023/12/18 00:22:12;;;;;;;18.17;11.32;;;;;;;7.34;68.37;103235.66;5090098;28;20027;-65
2023/12/18 00:24:37;;;;;;;15.35;11.52;;;;;;;7.38;68.52;103224.09;5091980;28;20030;-65
2023/12/18 00:27:03;;;;;;;15.13;10.48;;;;;;;7.38;67.86;103214.94;5077544;28;20561;-65
2023/12/18 00:29:28;;;;;;;15.10;11.10;;;;;;;7.44;67.29;103227.22;5073567;28;20039;-65
2023/12/18 00:31:53;;;;;;;15.25;11.82;;;;;;;7.42;68.30;103224.59;5078729;28;20021;-65
2023/12/18 00:34:19;;;;;;;22.13;12.40;;;;;;;7.42;68.47;103224.59;5086078;28;20464;-65
2023/12/18 00:36:44;;;;;;;19.75;12.07;;;;;;;7.46;67.82;103222.34;5076640;28;20060;-65
2023/12/18 00:39:11;;;;;;;15.02;11.85;;;;;;;7.44;68.17;103211.50;5091199;28;20020;-66
2023/12/18 00:41:40;;;;;;;18.70;12.32;;;;;;;7.41;68.31;103224.78;5090114;28;20032;-66
2023/12/18 00:44:08;;;;;;;19.65;12.27;;;;;;;7.42;68.19;103224.59;5083789;28;20035;-66
2023/12/18 00:46:33;;;;;;;17.55;11.80;;;;;;;7.34;68.46;103222.72;5090853;28;20161;-65
2023/12/18 00:48:59;;;;;;;20.17;13.13;;;;;;;7.32;68.57;103218.41;5083803;28;20139;-66
2023/12/18 00:51:27;;;;;;;15.90;12.27;;;;;;;7.32;68.91;103205.47;5082050;28;20032;-65
2023/12/18 00:53:52;;;;;;;14.98;11.93;;;;;;;7.34;69.47;103221.84;5089444;28;20034;-66
2023/12/18 00:56:19;;;;;;;15.18;11.88;;;;;;;7.35;69.06;103220.84;5091065;28;20036;-65
2023/12/18 00:58:44;;;;;;;19.33;13.32;;;;;;;7.41;69.05;103217.38;5089853;28;20498;-65
2023/12/18 01:01:09;;;;;;;20.58;13.55;;;;;;;7.43;69.68;103212.53;5072374;28;20032;-66
2023/12/18 01:03:35;;;;;;;16.92;12.77;;;;;;;7.47;69.52;103215.81;5090830;28;20562;-65
2023/12/18 01:06:02;;;;;;;18.00;13.20;;;;;;;7.49;69.36;103209.06;5091547;28;20525;-65
2023/12/18 01:08:27;;;;;;;19.88;13.18;;;;;;;7.47;69.13;103194.56;5076368;28;20139;-66
2023/12/18 01:10:52;;;;;;;19.30;13.07;;;;;;;7.48;69.55;103204.56;5071095;28;20119;-66
2023/12/18 01:13:18;;;;;;;17.67;13.05;;;;;;;7.43;69.55;103204.25;5074306;28;20020;-66
2023/12/18 01:15:43;;;;;;;22.40;13.25;;;;;;;7.40;69.87;103204.59;5075912;28;20024;-66
2023/12/18 01:18:08;;;;;;;19.13;13.25;;;;;;;7.40;70.21;103199.06;5075372;28;20040;-66
2023/12/18 01:20:34;;;;;;;16.67;12.93;;;;;;;7.42;70.33;103191.44;5074076;28;20023;-65
2023/12/18 01:22:59;;;;;;;20.92;14.50;;;;;;;7.44;70.58;103186.63;5071621;28;20028;-66
2023/12/18 01:25:24;;;;;;;18.45;13.43;;;;;;;7.43;71.35;103193.19;5081660;28;20020;-66
2023/12/18 01:27:50;;;;;;;20.42;13.35;;;;;;;7.46;71.04;103195.59;5083021;28;20048;-66
2023/12/18 01:30:15;;;;;;;17.23;14.20;;;;;;;7.46;70.89;103197.50;5077695;28;20024;-65
2023/12/18 01:32:42;;;;;;;20.92;14.82;;;;;;;7.34;71.01;103200.59;5076941;28;20468;-66
2023/12/18 01:35:07;;;;;;;20.42;13.52;;;;;;;7.42;70.85;103204.41;5081683;28;20575;-65
2023/12/18 01:37:32;;;;;;;22.20;14.50;;;;;;;7.46;71.19;103203.03;5078370;28;20115;-65
2023/12/18 01:39:58;;;;;;;18.92;14.05;;;;;;;7.46;71.90;103201.13;5084505;28;20085;-66
2023/12/18 01:42:23;;;;;;;20.83;14.23;;;;;;;7.47;71.41;103202.88;5079362;28;20038;-66
2023/12/18 01:44:48;;;;;;;20.73;13.73;;;;;;;7.49;71.92;103205.44;5086398;28;20569;-66
2023/12/18 01:47:16;;;;;;;19.65;14.45;;;;;;;7.51;71.17;103201.47;5084772;28;20043;-66
2023/12/18 01:49:42;;;;;;;24.65;14.88;;;;;;;7.49;71.18;103203.53;5080340;28;20083;-66
2023/12/18 01:52:07;;;;;;;19.25;14.38;;;;;;;7.49;71.72;103197.16;5086350;28;20081;-66
2023/12/18 01:54:33;;;;;;;24.08;15.05;;;;;;;7.46;72.37;103209.41;5085470;28;20027;-66
2023/12/18 01:56:59;;;;;;;20.50;13.82;;;;;;;7.51;71.99;103217.19;5094107;28;20482;-66
2023/12/18 01:59:30;;;;;;;20.40;13.40;;;;;;;7.48;72.15;103214.78;5092426;28;20114;-65
2023/12/18 02:01:56;;;;;;;22.73;14.50;;;;;;;7.45;72.29;103207.69;5079955;28;20032;-66
2023/12/18 02:04:22;;;;;;;23.88;15.15;;;;;;;7.50;71.71;103198.88;5073221;28;20032;-66
2023/12/18 02:06:48;;;;;;;21.25;13.68;;;;;;;7.52;72.39;103194.91;5073952;28;20035;-66
2023/12/18 02:09:15;;;;;;;23.15;14.82;;;;;;;7.54;72.11;103190.03;5089693;28;20036;-66
2023/12/18 02:11:44;;;;;;;21.10;14.27;;;;;;;7.54;72.21;103195.56;5082501;28;20502;-66
2023/12/18 02:14:09;;;;;;;22.50;14.45;;;;;;;7.50;71.81;103194.19;5087267;28;20036;-64
2023/12/18 02:16:35;;;;;;;19.10;15.13;;;;;;;7.51;72.29;103195.09;5094002;28;20081;-64
2023/12/18 02:19:00;;;;;;;21.73;14.48;;;;;;;7.52;71.96;103192.13;5089704;28;20089;-64
2023/12/18 02:21:25;;;;;;;22.55;15.07;;;;;;;7.51;72.03;103193.19;5093851;28;20024;-65
2023/12/18 02:23:51;;;;;;;22.38;14.27;;;;;;;7.54;72.32;103186.41;5093662;28;20414;-65
2023/12/18 02:26:16;;;;;;;21.30;14.52;;;;;;;7.52;72.44;103191.28;5093002;28;20111;-65
2023/12/18 02:28:43;;;;;;;21.58;14.82;;;;;;;7.52;72.30;103189.38;5089933;28;20082;-65
2023/12/18 02:31:11;;;;;;;20.83;14.38;;;;;;;7.54;72.24;103183.66;5081871;28;20498;-65
2023/12/18 02:33:36;;;;;;;23.15;14.95;;;;;;;7.46;73.17;103190.06;5089240;28;20040;-65
2023/12/18 02:36:02;;;;;;;23.25;14.60;;;;;;;7.48;71.75;103178.84;5092742;28;20456;-65
2023/12/18 02:38:27;;;;;;;20.90;14.68;;;;;;;7.46;72.57;103181.78;5085434;28;20369;-65
2023/12/18 02:40:52;;;;;;;23.48;15.27;;;;;;;7.45;72.56;103168.16;5091560;28;20498;-64
2023/12/18 02:43:18;;;;;;;20.65;15.70;;;;;;;7.46;72.91;103167.94;5086763;28;20024;-65
2023/12/18 02:45:43;;;;;;;23.25;15.35;;;;;;;7.46;72.68;103165.19;5073242;28;20107;-65
2023/12/18 02:48:08;;;;;;;18.77;15.30;;;;;;;7.45;72.51;103169.00;5084390;28;20471;-65
2023/12/18 02:50:36;;;;;;;23.23;14.43;;;;;;;7.46;73.17;103176.25;5091375;28;20033;-65
2023/12/18 02:53:02;;;;;;;24.15;14.45;;;;;;;7.46;72.64;103172.63;5093205;28;20416;-65
2023/12/18 02:55:27;;;;;;;19.30;14.80;;;;;;;7.43;73.44;103162.81;5086245;28;20031;-65
2023/12/18 02:57:52;;;;;;;20.65;14.48;;;;;;;7.43;73.41;103165.56;5092779;28;20024;-64
2023/12/18 03:00:18;;;;;;;20.70;14.30;;;;;;;7.39;73.60;103164.19;5092743;28;20032;-65
2023/12/18 03:02:44;;;;;;;22.38;14.60;;;;;;;7.40;73.72;103151.25;5080675;28;20025;-65
2023/12/18 03:05:10;;;;;;;20.77;14.30;;;;;;;7.36;73.08;103153.50;5084429;28;20475;-65
2023/12/18 03:07:35;;;;;;;21.50;15.63;;;;;;;7.30;73.19;103154.19;5091677;28;20063;-65
2023/12/18 03:10:00;;;;;;;22.60;15.40;;;;;;;7.32;73.41;103146.59;5091298;28;20032;-65
2023/12/18 03:12:26;;;;;;;28.75;16.08;;;;;;;7.33;73.23;103145.53;5073156;28;20040;-65
2023/12/18 03:14:51;;;;;;;24.52;15.95;;;;;;;7.34;73.94;103153.63;5087553;28;20395;-65
2023/12/18 03:17:16;;;;;;;21.45;15.18;;;;;;;7.33;72.93;103143.63;5082089;28;20036;-65
2023/12/18 03:19:41;;;;;;;24.95;17.02;;;;;;;7.32;73.64;103143.81;5092797;28;20031;-65
2023/12/18 03:22:07;;;;;;;25.33;16.20;;;;;;;7.28;73.14;103142.47;5090200;28;20027;-65
2023/12/18 03:24:32;;;;;;;23.70;16.42;;;;;;;7.25;72.97;103140.91;5077830;28;20036;-65
2023/12/18 03:27:00;;;;;;;22.85;15.95;;;;;;;7.29;73.41;103149.69;5090399;28;20055;-65
2023/12/18 03:29:26;;;;;;;24.83;15.80;;;;;;;7.30;73.61;103151.41;5091915;28;20059;-65
2023/12/18 03:31:51;;;;;;;25.63;16.40;;;;;;;7.29;73.63;103144.16;5092659;28;20119;-65
2023/12/18 03:34:16;;;;;;;22.80;16.70;;;;;;;7.27;73.61;103154.50;5092464;28;20047;-65
2023/12/18 03:36:41;;;;;;;23.73;16.42;;;;;;;7.28;74.36;103139.69;5090058;28;20032;-65
2023/12/18 03:39:07;;;;;;;26.23;16.58;;;;;;;7.27;73.80;103137.94;5088845;28;20065;-65
2023/12/18 03:41:35;;;;;;;22.05;16.17;;;;;;;7.29;74.44;103141.41;5086513;28;20039;-65
2023/12/18 03:44:00;;;;;;;22.17;16.25;;;;;;;7.29;73.94;103138.66;5079738;28;20024;-65
2023/12/18 03:46:25;;;;;;;24.77;16.27;;;;;;;7.27;74.03;103143.47;5077684;28;20035;-65
2023/12/18 03:48:50;;;;;;;24.95;16.63;;;;;;;7.29;74.10;103145.03;5091797;28;20190;-65
2023/12/18 03:51:16;;;;;;;25.75;16.98;;;;;;;7.31;74.47;103151.25;5091216;28;20020;-65
2023/12/18 03:53:41;;;;;;;28.65;16.98;;;;;;;7.36;74.12;103153.50;5091972;28;20028;-65
2023/12/18 03:56:07;;;;;;;23.42;16.40;;;;;;;7.38;73.94;103156.91;5087400;28;20136;-65
2023/12/18 03:58:32;;;;;;;27.30;17.77;;;;;;;7.40;73.83;103154.84;5091208;28;20089;-65
2023/12/18 04:00:57;;;;;;;25.25;17.20;;;;;;;7.43;74.52;103149.00;5078776;28;20028;-65
2023/12/18 04:03:22;;;;;;;24.35;17.40;;;;;;;7.45;74.49;103157.94;5091604;28;20017;-65
2023/12/18 04:05:51;;;;;;;22.42;16.70;;;;;;;7.32;74.48;103146.59;5076762;28;20024;-65
2023/12/18 04:08:16;;;;;;;28.73;17.05;;;;;;;7.36;73.83;103148.81;5072669;28;20039;-65
2023/12/18 04:10:44;;;;;;;26.25;16.90;;;;;;;7.37;74.69;103146.91;5078901;28;20033;-65
2023/12/18 04:13:10;;;;;;;24.60;16.13;;;;;;;7.35;74.24;103146.25;5080074;28;20073;-64
2023/12/18 04:15:38;;;;;;;23.30;17.40;;;;;;;7.38;74.42;103148.63;5073420;28;20052;-64
2023/12/18 04:18:06;;;;;;;24.23;16.35;;;;;;;7.36;74.21;103146.06;5073009;28;20021;-65
2023/12/18 04:20:31;;;;;;;25.85;17.33;;;;;;;7.34;74.91;103144.50;5075729;28;20032;-64
2023/12/18 04:22:57;;;;;;;23.67;17.52;;;;;;;7.31;74.50;103140.22;5091319;28;20035;-64
2023/12/18 04:25:22;;;;;;;27.73;16.90;;;;;;;7.36;74.16;103148.81;5089222;28;20547;-63
2023/12/18 04:27:47;;;;;;;23.50;16.75;;;;;;;7.36;74.98;103142.44;5084863;28;20559;-65
2023/12/18 04:30:13;;;;;;;23.17;16.52;;;;;;;7.38;74.68;103137.59;5091080;28;20039;-64
2023/12/18 04:32:38;;;;;;;24.85;17.38;;;;;;;7.38;74.50;103140.34;5073194;28;20028;-64
2023/12/18 04:35:04;;;;;;;26.02;16.90;;;;;;;7.38;74.93;103138.44;5082240;28;20154;-65
2023/12/18 04:37:29;;;;;;;23.42;16.55;;;;;;;7.31;74.87;103134.69;5085921;28;20028;-65
2023/12/18 04:39:58;;;;;;;22.80;16.92;;;;;;;7.27;75.05;103125.03;5082921;28;20020;-64
2023/12/18 04:42:23;;;;;;;22.95;16.75;;;;;;;7.33;74.87;103134.50;5090235;28;20177;-65
2023/12/18 04:44:52;;;;;;;27.88;18.08;;;;;;;7.31;74.50;103131.91;5091123;28;20095;-65
2023/12/18 04:47:17;;;;;;;28.75;17.55;;;;;;;7.31;75.02;103133.78;5090213;28;20134;-64
2023/12/18 04:49:42;;;;;;;28.70;17.67;;;;;;;7.30;75.03;103135.69;5088579;28;20107;-65
2023/12/18 04:52:08;;;;;;;26.00;17.27;;;;;;;7.30;75.73;103129.31;5090971;28;20387;-63
2023/12/18 04:54:33;;;;;;;27.27;16.35;;;;;;;7.25;75.88;103123.47;5088661;28;20039;-65
2023/12/18 04:56:58;;;;;;;24.83;17.00;;;;;;;7.28;75.53;103125.88;5081646;28;20033;-64
2023/12/18 04:59:24;;;;;;;24.92;17.65;;;;;;;7.25;76.13;103126.22;5081646;28;20050;-65
2023/12/18 05:01:49;;;;;;;27.65;17.00;;;;;;;7.25;75.96;103123.47;5088728;28;20024;-64
2023/12/18 05:04:14;;;;;;;26.92;17.58;;;;;;;7.29;75.28;103127.59;5091430;28;20467;-64
2023/12/18 05:06:40;;;;;;;26.23;17.15;;;;;;;7.30;76.26;103130.16;5082164;28;20105;-64
2023/12/18 05:09:06;;;;;;;30.58;17.88;;;;;;;7.25;75.63;103129.84;5085584;28;20063;-64
2023/12/18 05:11:31;;;;;;;28.90;18.23;;;;;;;7.26;75.93;103130.69;5091306;28;20066;-64
2023/12/18 05:13:56;;;;;;;27.50;17.33;;;;;;;7.26;75.93;103131.56;5087758;28;20056;-64
2023/12/18 05:16:25;;;;;;;26.13;17.55;;;;;;;7.20;75.81;103125.91;5078076;28;20109;-64
2023/12/18 05:18:50;;;;;;;27.73;18.08;;;;;;;7.13;75.52;103126.59;5071089;28;20037;-65
2023/12/18 05:21:15;;;;;;;25.10;17.83;;;;;;;7.13;75.71;103112.78;5071257;28;20038;-64
2023/12/18 05:23:40;;;;;;;28.30;17.63;;;;;;;7.13;75.69;103109.16;5086100;28;20062;-65
2023/12/18 05:26:06;;;;;;;28.25;18.08;;;;;;;7.09;76.49;103108.63;5079868;28;20379;-64
2023/12/18 05:28:32;;;;;;;31.45;18.02;;;;;;;7.12;76.02;103113.81;5073700;28;20487;-66
2023/12/18 05:30:57;;;;;;;27.73;18.38;;;;;;;7.11;76.85;103109.34;5080352;28;20035;-64
2023/12/18 05:33:23;;;;;;;27.33;18.25;;;;;;;7.14;76.19;103113.63;5087549;28;20032;-65
2023/12/18 05:35:48;;;;;;;28.52;19.10;;;;;;;7.14;76.21;103131.06;5086430;28;20020;-65
2023/12/18 05:38:17;;;;;;;31.60;19.27;;;;;;;7.13;76.84;103131.25;5093058;28;20046;-65
2023/12/18 05:40:42;;;;;;;29.52;18.35;;;;;;;7.13;76.69;103132.09;5077599;28;20052;-64
2023/12/18 05:43:07;;;;;;;30.67;19.38;;;;;;;7.19;76.84;103126.91;5073651;28;20487;-65
2023/12/18 05:45:35;;;;;;;28.10;17.23;;;;;;;7.18;76.51;103141.75;5090392;28;20036;-65
2023/12/18 05:48:01;;;;;;;28.15;17.95;;;;;;;7.17;76.42;103131.75;5093881;28;20388;-64
2023/12/18 05:50:27;;;;;;;26.77;19.15;;;;;;;7.11;76.67;103141.59;5093657;28;20030;-65
2023/12/18 05:52:55;;;;;;;32.53;18.67;;;;;;;7.09;77.17;103139.00;5089278;28;20085;-64
2023/12/18 05:55:24;;;;;;;31.67;18.63;;;;;;;7.11;76.63;103149.88;5091103;28;20467;-64
2023/12/18 05:57:49;;;;;;;29.05;18.40;;;;;;;7.17;76.70;103140.06;5073420;28;20040;-64
2023/12/18 06:00:19;;;;;;;26.77;17.88;;;;;;;7.21;76.82;103130.38;5073449;28;20131;-64
2023/12/18 06:02:44;;;;;;;27.65;18.75;;;;;;;7.21;76.69;103131.22;5091588;28;20036;-64
2023/12/18 06:05:10;;;;;;;27.00;17.33;;;;;;;7.26;76.84;103119.66;5091035;28;20111;-64
2023/12/18 06:07:35;;;;;;;27.30;18.45;;;;;;;7.28;77.06;103125.88;5082616;28;20364;-64
2023/12/18 06:10:03;;;;;;;30.65;19.38;;;;;;;7.24;76.75;103128.13;5092367;28;20120;-64
2023/12/18 06:12:29;;;;;;;26.48;18.23;;;;;;;7.25;76.71;103120.69;5091532;28;20038;-64
2023/12/18 06:14:54;;;;;;;24.88;17.77;;;;;;;7.17;76.71;103126.25;5094142;28;20110;-64
2023/12/18 06:17:19;;;;;;;28.27;18.30;;;;;;;7.16;77.04;103130.03;5091342;28;20576;-64
2023/12/18 06:19:44;;;;;;;29.77;17.17;;;;;;;7.18;77.53;103128.81;5092218;28;20039;-65
2023/12/18 06:22:11;;;;;;;28.92;18.80;;;;;;;7.18;77.62;103130.72;5090393;28;20107;-65
2023/12/18 06:24:38;;;;;;;25.33;18.42;;;;;;;7.16;77.16;103125.38;5084109;28;20906;-64
2023/12/18 06:27:04;;;;;;;28.25;18.17;;;;;;;7.20;77.03;103124.00;5072976;28;20511;-63
2023/12/18 06:29:29;;;;;;;30.60;17.63;;;;;;;7.18;77.21;103128.81;5077913;28;20029;-64
2023/12/18 06:31:54;;;;;;;33.15;18.63;;;;;;;7.17;77.24;103127.09;5079340;28;20021;-64
2023/12/18 06:34:19;;;;;;;34.17;18.55;;;;;;;7.17;77.20;103124.34;5079996;28;20044;-64
2023/12/18 06:36:45;;;;;;;26.98;17.80;;;;;;;7.20;77.30;103125.91;5078909;28;20064;-63
2023/12/18 06:39:10;;;;;;;28.05;17.55;;;;;;;7.19;76.67;103115.88;5081036;28;20059;-64
2023/12/18 06:41:36;;;;;;;25.52;16.92;;;;;;;7.23;77.30;103122.75;5087812;28;20464;-63
2023/12/18 06:44:02;;;;;;;29.85;19.05;;;;;;;7.25;76.54;103115.19;5091153;28;20032;-64
2023/12/18 06:46:28;;;;;;;29.42;18.27;;;;;;;7.26;77.21;103120.50;5079318;28;20036;-63
2023/12/18 06:48:53;;;;;;;27.33;17.60;;;;;;;7.27;77.37;103118.59;5076016;28;20036;-63
2023/12/18 06:51:19;;;;;;;28.40;18.45;;;;;;;7.26;77.57;103116.88;5078944;28;20034;-63
2023/12/18 06:53:47;;;;;;;31.67;18.50;;;;;;;7.28;76.98;103120.34;5084225;28;20037;-64
2023/12/18 06:56:12;;;;;;;29.52;18.50;;;;;;;7.24;76.98;103119.84;5075993;28;20387;-64
2023/12/18 06:58:37;;;;;;;31.42;18.65;;;;;;;7.19;77.38;103125.03;5079889;28;20035;-64
2023/12/18 07:01:03;;;;;;;27.55;18.48;;;;;;;7.14;77.63;103117.25;5075469;28;20046;-63
2023/12/18 07:03:28;;;;;;;30.25;18.52;;;;;;;7.17;77.17;103127.09;5085991;28;20028;-64
2023/12/18 07:05:53;;;;;;;28.10;18.92;;;;;;;7.16;78.02;103130.03;5072568;28;20040;-64
2023/12/18 07:08:20;;;;;;;27.88;18.25;;;;;;;7.13;77.67;103122.97;5075576;28;20426;-64
2023/12/18 07:10:45;;;;;;;32.72;18.35;;;;;;;7.11;77.82;103125.91;5078395;28;20028;-64
2023/12/18 07:13:11;;;;;;;29.33;19.25;;;;;;;7.11;78.11;103122.25;5088926;28;20034;-64
2023/12/18 07:15:36;;;;;;;28.92;18.70;;;;;;;7.13;77.84;103121.06;5092225;28;20369;-64
2023/12/18 07:18:03;;;;;;;32.78;18.27;;;;;;;7.18;78.07;103128.81;5092509;28;20031;-63
2023/12/18 07:20:28;;;;;;;29.77;19.10;;;;;;;7.06;77.92;103131.06;5078483;28;20028;-64
2023/12/18 07:22:54;;;;;;;29.13;18.45;;;;;;;7.12;77.96;103135.91;5073207;28;20028;-64
2023/12/18 07:25:19;;;;;;;30.63;19.70;;;;;;;7.09;77.93;103130.72;5084469;28;20032;-64
2023/12/18 07:27:45;;;;;;;30.60;18.77;;;;;;;7.07;77.96;103148.50;5086040;28;20048;-64
2023/12/18 07:30:11;;;;;;;31.50;19.15;;;;;;;7.09;78.39;103147.31;5077967;28;20025;-64
2023/12/18 07:32:37;;;;;;;33.47;18.77;;;;;;;7.14;78.35;103144.00;5078688;28;20082;-64
2023/12/18 07:35:04;;;;;;;27.73;18.50;;;;;;;7.14;77.96;103142.09;5076470;28;20071;-64
2023/12/18 07:37:30;;;;;;;31.77;18.95;;;;;;;7.12;77.95;103135.91;5079860;28;20090;-64
2023/12/18 07:39:56;;;;;;;31.10;19.95;;;;;;;7.12;78.22;103135.91;5078255;28;20081;-64
2023/12/18 07:42:22;;;;;;;30.73;18.80;;;;;;;7.10;78.60;103137.13;5079978;28;20800;-64
2023/12/18 07:44:48;;;;;;;30.05;19.15;;;;;;;7.10;78.55;103135.22;5092154;28;20028;-63
2023/12/18 07:47:14;;;;;;;35.17;20.10;;;;;;;7.06;78.27;103144.03;5090512;28;20103;-63
2023/12/18 07:49:39;;;;;;;26.27;19.40;;;;;;;7.07;78.63;103135.59;5071464;28;20067;-63
2023/12/18 07:52:04;;;;;;;29.55;19.35;;;;;;;7.09;78.51;103135.41;5075905;28;20430;-62
2023/12/18 07:54:30;;;;;;;31.30;18.95;;;;;;;7.12;79.14;103129.53;5077195;28;20036;-64
2023/12/18 07:56:55;;;;;;;33.88;19.08;;;;;;;7.17;78.97;103132.63;5078048;28;20361;-62
2023/12/18 07:59:20;;;;;;;29.17;18.35;;;;;;;7.16;78.02;103133.66;5076470;28;20392;-63
2023/12/18 08:01:46;;;;;;;32.42;19.48;;;;;;;7.19;78.49;103121.38;5082148;28;20055;-64
2023/12/18 08:04:11;;;;;;;32.13;19.30;;;;;;;7.20;78.15;103132.28;5084878;28;20047;-64
2023/12/18 08:06:37;;;;;;;30.65;19.08;;;;;;;7.22;78.40;103130.19;5085204;28;20114;-64
2023/12/18 08:09:03;;;;;;;30.38;18.98;;;;;;;7.20;78.12;103124.00;5085542;28;20063;-64
2023/12/18 08:11:28;;;;;;;29.10;18.35;;;;;;;7.21;78.59;103122.94;5089172;28;20035;-63
2023/12/18 08:13:53;;;;;;;30.27;20.20;;;;;;;7.25;78.27;103120.69;5076969;28;20024;-63
2023/12/18 08:16:18;;;;;;;31.38;18.98;;;;;;;7.27;78.80;103110.31;5086048;28;20031;-66
2023/12/18 08:18:44;;;;;;;32.75;19.67;;;;;;;7.22;78.05;103108.09;5085791;28;20354;-64
2023/12/18 08:21:14;;;;;;;30.58;19.80;;;;;;;7.22;78.25;103112.75;5075757;28;20040;-64
2023/12/18 08:23:40;;;;;;;29.88;19.10;;;;;;;7.23;78.28;103114.47;5073908;28;20510;-65
2023/12/18 08:26:06;;;;;;;32.03;19.00;;;;;;;7.24;77.79;103110.69;5070415;28;20032;-63
2023/12/18 08:28:31;;;;;;;30.30;19.42;;;;;;;7.26;77.95;103111.38;5077658;28;20059;-64
2023/12/18 08:30:56;;;;;;;31.33;18.45;;;;;;;7.28;78.17;103112.94;5071965;28;20024;-63
2023/12/18 08:33:21;;;;;;;36.40;19.98;;;;;;;7.31;77.87;103109.81;5076137;28;20514;-64
2023/12/18 08:35:47;;;;;;;27.85;19.02;;;;;;;7.29;78.07;103113.78;5081592;28;20047;-62
2023/12/18 08:38:13;;;;;;;29.20;18.80;;;;;;;7.33;77.72;103116.00;5075579;28;20032;-63
2023/12/18 08:40:39;;;;;;;33.08;19.30;;;;;;;7.34;78.28;103105.81;5070262;28;20032;-64
2023/12/18 08:43:04;;;;;;;36.60;20.02;;;;;;;7.34;78.23;103116.88;5070645;28;20345;-63
2023/12/18 08:45:29;;;;;;;33.33;19.67;;;;;;;7.28;77.39;103115.69;5071857;28;20025;-63
2023/12/18 08:47:59;;;;;;;33.05;19.63;;;;;;;7.21;78.58;103105.53;5083331;28;20032;-58
2023/12/18 08:50:27;;;;;;;32.97;22.35;;;;;;;7.20;79.01;103104.66;5077017;28;20059;-61
2023/12/18 08:52:53;;;;;;;35.58;20.48;;;;;;;7.19;78.80;103097.41;5073318;28;20036;-62
2023/12/18 08:55:19;;;;;;;34.75;22.13;;;;;;;7.20;78.90;103101.03;5083258;28;20467;-58
2023/12/18 08:57:44;;;;;;;46.20;28.75;;;;;;;7.17;79.42;103095.84;5090509;28;20055;-61
2023/12/18 09:00:11;;;;;;;43.08;23.42;;;;;;;7.21;78.89;103103.63;5087676;28;20440;-60
2023/12/18 09:02:36;;;;;;;36.15;21.92;;;;;;;7.25;78.60;103101.38;5090614;28;20040;-60
2023/12/18 09:05:02;;;;;;;32.95;23.55;;;;;;;7.23;78.46;103093.25;5075465;28;20020;-61
2023/12/18 09:07:30;;;;;;;32.50;21.70;;;;;;;7.21;79.03;103102.75;5085514;28;20387;-62
2023/12/18 09:09:55;;;;;;;31.83;20.98;;;;;;;7.21;78.88;103095.31;5075828;28;20040;-62
2023/12/18 09:12:20;;;;;;;29.88;19.63;;;;;;;7.22;78.71;103090.66;5091883;28;20044;-63
2023/12/18 09:14:46;;;;;;;28.77;19.73;;;;;;;7.25;78.82;103093.06;5087742;28;20028;-62
2023/12/18 09:17:11;;;;;;;29.58;19.35;;;;;;;7.28;78.28;103096.34;5090184;28;20036;-58
2023/12/18 09:19:36;;;;;;;29.17;20.35;;;;;;;7.30;79.25;103091.50;5079039;28;20111;-59
2023/12/18 09:22:02;;;;;;;29.20;19.42;;;;;;;7.30;78.72;103088.72;5082919;28;20035;-61
2023/12/18 09:24:28;;;;;;;25.33;17.38;;;;;;;7.61;82.67;103088.81;5086896;28;20036;-62
2023/12/18 09:26:54;;;;;;;28.20;18.98;;;;;;;7.54;79.67;103086.94;5078579;28;20426;-62
2023/12/18 09:29:19;;;;;;;30.75;19.27;;;;;;;7.56;78.73;103095.91;5082244;28;20067;-62
2023/12/18 09:31:45;;;;;;;28.95;18.92;;;;;;;7.57;78.79;103094.88;5077545;28;20028;-62
2023/12/18 09:34:10;;;;;;;28.75;18.77;;;;;;;7.57;78.50;103104.03;5091655;28;20099;-62
2023/12/18 09:36:36;;;;;;;30.95;20.05;;;;;;;7.57;78.54;103101.25;5084253;28;20040;-62
2023/12/18 09:39:02;;;;;;;32.83;20.33;;;;;;;7.59;78.60;103113.00;5081527;28;20040;-62
2023/12/18 09:41:30;;;;;;;34.75;19.27;;;;;;;7.61;78.31;103105.38;5091435;28;20031;-62
2023/12/18 09:43:56;;;;;;;35.13;20.85;;;;;;;7.62;77.63;103111.78;5092197;28;20106;-62
2023/12/18 09:46:24;;;;;;;30.55;19.20;;;;;;;7.60;77.81;103106.44;5086245;28;20028;-62
2023/12/18 09:48:50;;;;;;;35.90;20.55;;;;;;;7.60;78.00;103098.16;5079965;28;20040;-62
2023/12/18 09:51:19;;;;;;;31.98;20.15;;;;;;;7.56;78.34;103099.53;5082365;28;20028;-63
2023/12/18 09:53:46;;;;;;;31.48;21.13;;;;;;;7.57;78.08;103101.25;5084184;28;20040;-62
2023/12/18 09:56:12;;;;;;;33.53;19.70;;;;;;;7.59;77.85;103095.56;5072880;28;20033;-63
2023/12/18 09:58:40;;;;;;;31.35;20.25;;;;;;;7.57;78.75;103095.72;5083747;28;20032;-64
2023/12/18 10:01:05;;;;;;;31.77;19.95;;;;;;;7.58;78.31;103091.06;5088931;28;20139;-63
2023/12/18 10:03:31;;;;;;;34.38;19.98;;;;;;;7.60;78.07;103084.31;5086648;28;20124;-62
2023/12/18 10:05:56;;;;;;;32.35;19.33;;;;;;;7.60;77.67;103095.38;5080164;28;20078;-62
2023/12/18 10:08:21;;;;;;;32.20;19.77;;;;;;;7.57;77.63;103095.72;5082119;28;20040;-63
2023/12/18 10:10:47;;;;;;;34.85;19.75;;;;;;;7.51;78.20;103090.06;5078108;28;20020;-62
2023/12/18 10:13:13;;;;;;;33.03;19.75;;;;;;;7.53;78.57;103087.97;5072303;28;20357;-62
2023/12/18 10:15:39;;;;;;;30.08;19.42;;;;;;;7.52;78.26;103091.78;5076488;28;20075;-61
2023/12/18 10:18:05;;;;;;;31.40;20.45;;;;;;;7.52;78.38;103081.59;5082166;28;20021;-61
2023/12/18 10:20:32;;;;;;;34.75;21.98;;;;;;;7.53;77.91;103090.75;5090372;28;20554;-61
2023/12/18 10:23:03;;;;;;;38.33;22.52;;;;;;;7.53;78.18;103086.06;5087044;28;20021;-62
2023/12/18 10:25:29;;;;;;;36.35;22.27;;;;;;;7.59;78.04;103093.66;5080319;28;20131;-60
2023/12/18 10:27:55;;;;;;;34.88;22.95;;;;;;;7.48;78.17;103085.75;5087539;28;20083;-62
2023/12/18 10:30:25;;;;;;;32.45;21.23;;;;;;;7.52;78.22;103092.66;5093303;28;20024;-61
2023/12/18 10:32:51;;;;;;;29.20;20.13;;;;;;;7.54;78.59;103087.78;5092385;28;20081;-61
2023/12/18 10:35:17;;;;;;;30.65;20.13;;;;;;;7.58;78.62;103088.28;5087792;28;20120;-60
2023/12/18 10:37:48;;;;;;;33.30;20.60;;;;;;;7.55;78.34;103075.72;5076865;28;20158;-61
2023/12/18 10:40:15;;;;;;;32.53;19.30;;;;;;;7.56;78.06;103071.06;5081529;28;20062;-61
2023/12/18 10:42:45;;;;;;;32.42;20.80;;;;;;;7.56;78.71;103066.38;5084886;28;20451;-60
2023/12/18 10:45:11;;;;;;;32.33;20.10;;;;;;;7.58;78.54;103061.53;5077066;28;20124;-61
2023/12/18 10:47:37;;;;;;;29.88;19.20;;;;;;;7.57;78.53;103058.94;5080236;28;20798;-58
2023/12/18 10:50:04;;;;;;;28.13;19.05;;;;;;;7.54;78.62;103064.81;5087230;28;20029;-64
2023/12/18 10:52:31;;;;;;;29.52;19.25;;;;;;;7.53;77.90;103055.69;5078856;28;20027;-64
2023/12/18 10:55:03;;;;;;;29.50;19.67;;;;;;;7.53;78.96;103046.53;5086480;28;20028;-63
2023/12/18 10:57:31;;;;;;;26.98;18.73;;;;;;;7.56;78.17;103044.28;5085319;28;20039;-63
2023/12/18 10:59:58;;;;;;;35.08;18.52;;;;;;;7.52;78.11;103037.38;5080955;28;20066;-63
2023/12/18 11:02:28;;;;;;;29.05;18.90;;;;;;;7.53;77.93;103027.19;5086552;28;20031;-63
2023/12/18 11:04:57;;;;;;;29.90;18.73;;;;;;;7.51;78.51;103032.91;5085857;28;20044;-63
2023/12/18 11:07:22;;;;;;;30.80;18.77;;;;;;;7.52;77.55;103025.47;5083097;28;20016;-63
2023/12/18 11:09:49;;;;;;;28.27;17.77;;;;;;;7.51;78.20;103034.81;5074740;28;20035;-63